createdAt,value
2022-07-30T00:02:19.071Z,100433.31
2022-07-30T00:04:48.970Z,100426.66
2022-07-30T00:07:17.645Z,100417.31
2022-07-30T00:09:45.724Z,100413.13
2022-07-30T00:12:13.850Z,100419.22
2022-07-30T00:14:42.309Z,100415.75
2022-07-30T00:17:10.781Z,100414.59
2022-07-30T00:19:38.723Z,100412.94
2022-07-30T00:22:08.110Z,100415.25
2022-07-30T00:24:36.258Z,100412.31
2022-07-30T00:27:04.421Z,100373.75
2022-07-30T00:29:32.775Z,100404.31
2022-07-30T00:32:01.106Z,100336.06
2022-07-30T00:34:29.037Z,100409.00
2022-07-30T00:36:57.625Z,100401.94
2022-07-30T00:39:29.937Z,100383.47
2022-07-30T00:42:00.470Z,100405.69
2022-07-30T00:44:29.640Z,100405.25
2022-07-30T00:46:58.409Z,100352.09
2022-07-30T00:49:27.400Z,100394.69
2022-07-30T00:51:56.964Z,100405.94
2022-07-30T00:54:25.105Z,100403.25
2022-07-30T00:56:54.800Z,100401.78
2022-07-30T00:59:22.852Z,100394.78
2022-07-30T01:01:50.851Z,100395.22
2022-07-30T01:04:19.189Z,100404.81
2022-07-30T01:06:47.930Z,100398.31
2022-07-30T01:09:15.889Z,100398.19
2022-07-30T01:11:45.433Z,100395.69
2022-07-30T01:14:15.391Z,100394.06
2022-07-30T01:16:45.277Z,100393.59
2022-07-30T01:19:38.680Z,100395.97
2022-07-30T01:22:15.583Z,100404.91
2022-07-30T01:24:48.471Z,100402.78
2022-07-30T01:27:19.993Z,100407.00
2022-07-30T01:29:50.186Z,100388.19
2022-07-30T01:32:20.736Z,100389.88
2022-07-30T01:34:50.230Z,100398.94
2022-07-30T01:37:20.488Z,100377.41
2022-07-30T01:39:50.509Z,100364.56
2022-07-30T01:42:21.844Z,100396.81
2022-07-30T01:44:51.166Z,100312.03
2022-07-30T01:47:21.040Z,100375.56
2022-07-30T01:49:51.290Z,100391.09
2022-07-30T01:52:21.062Z,100379.63
2022-07-30T01:54:52.172Z,100387.31
2022-07-30T01:57:23.316Z,100390.97
2022-07-30T01:59:56.164Z,100395.41
2022-07-30T02:02:24.628Z,100361.34
2022-07-30T02:04:52.886Z,100400.66
2022-07-30T02:07:25.813Z,100297.38
2022-07-30T02:09:59.676Z,100401.59
2022-07-30T02:12:33.482Z,100406.03
2022-07-30T02:15:15.466Z,100377.22
2022-07-30T02:17:46.908Z,100403.69
2022-07-30T02:20:18.383Z,100389.50
2022-07-30T02:22:48.660Z,100379.09
2022-07-30T02:25:19.323Z,100412.50
2022-07-30T02:27:53.906Z,100417.75
2022-07-30T02:30:26.903Z,100427.25
2022-07-30T02:33:00.800Z,100403.44
2022-07-30T02:35:31.601Z,100413.19
2022-07-30T02:38:03.283Z,100423.28
2022-07-30T02:40:32.998Z,100426.28
2022-07-30T02:43:03.765Z,100421.06
2022-07-30T02:45:31.864Z,100419.88
2022-07-30T02:48:02.701Z,100426.19
2022-07-30T02:50:32.249Z,100400.56
2022-07-30T02:53:03.912Z,100415.72
2022-07-30T02:55:35.818Z,100424.44
2022-07-30T02:58:08.574Z,100428.63
2022-07-30T03:00:38.445Z,100404.84
2022-07-30T03:03:08.519Z,100412.63
2022-07-30T03:05:39.897Z,100426.28
2022-07-30T03:08:09.701Z,100419.91
2022-07-30T03:10:39.140Z,100434.13
2022-07-30T03:13:10.498Z,100385.69
2022-07-30T03:15:43.485Z,100413.13
2022-07-30T03:18:14.445Z,100438.09
2022-07-30T03:20:45.739Z,100449.69
2022-07-30T03:23:19.486Z,100427.63
2022-07-30T03:25:52.160Z,100448.22
2022-07-30T03:28:26.616Z,100454.41
2022-07-30T03:30:55.246Z,100448.50
2022-07-30T03:33:24.998Z,100367.81
2022-07-30T03:36:08.157Z,100444.66
2022-07-30T03:38:38.764Z,100454.63
2022-07-30T03:41:08.512Z,100451.41
2022-07-30T03:43:40.355Z,100463.22
2022-07-30T03:46:11.706Z,100448.72
2022-07-30T03:48:44.207Z,100427.84
2022-07-30T03:51:12.998Z,100469.72
2022-07-30T03:53:43.248Z,100465.25
2022-07-30T03:56:50.122Z,100465.53
2022-07-30T03:59:46.883Z,100466.09
2022-07-30T04:02:15.160Z,100458.19
2022-07-30T04:05:13.529Z,100455.69
2022-07-30T04:07:45.252Z,100458.09
2022-07-30T04:10:15.685Z,100473.06
2022-07-30T04:13:09.897Z,100477.34
2022-07-30T04:16:37.978Z,100480.13
2022-07-30T04:18:43.896Z,100484.38
2022-07-30T04:21:17.266Z,100486.03
2022-07-30T04:24:02.379Z,100496.78
2022-07-30T04:26:35.907Z,100484.75
2022-07-30T04:29:07.489Z,100414.66
2022-07-30T04:31:40.734Z,100319.81
2022-07-30T04:34:29.717Z,100509.41
2022-07-30T04:36:58.257Z,100500.72
2022-07-30T04:39:27.006Z,100510.47
2022-07-30T04:41:55.592Z,100512.31
2022-07-30T04:44:35.776Z,100518.53
2022-07-30T04:47:24.659Z,100513.09
2022-07-30T04:50:24.730Z,100525.28
2022-07-30T04:52:54.824Z,100513.69
2022-07-30T04:55:28.950Z,100519.88
2022-07-30T04:57:58.848Z,100533.59
2022-07-30T05:00:30.904Z,100527.22
2022-07-30T05:03:04.588Z,100520.56
2022-07-30T05:05:34.727Z,100521.41
2022-07-30T05:08:04.241Z,100526.81
2022-07-30T05:10:33.087Z,100534.16
2022-07-30T05:13:01.631Z,100520.56
2022-07-30T05:15:37.419Z,100524.31
2022-07-30T05:18:09.892Z,100531.06
2022-07-30T05:20:41.283Z,100525.75
2022-07-30T05:23:16.022Z,100530.00
2022-07-30T05:25:51.424Z,100523.34
2022-07-30T05:28:30.256Z,100530.63
2022-07-30T05:31:02.013Z,100531.28
2022-07-30T05:33:42.501Z,100523.75
2022-07-30T05:36:13.025Z,100525.28
2022-07-30T05:38:41.885Z,100520.38
2022-07-30T05:41:32.348Z,100490.88
2022-07-30T05:44:23.894Z,100526.94
2022-07-30T05:46:53.126Z,100531.28
2022-07-30T05:49:22.859Z,100485.53
2022-07-30T05:51:51.164Z,100536.50
2022-07-30T05:54:19.800Z,100524.31
2022-07-30T05:57:17.129Z,100526.34
2022-07-30T05:59:47.522Z,100531.19
2022-07-30T06:02:29.184Z,100534.47
2022-07-30T06:05:19.402Z,100534.94
2022-07-30T06:07:48.165Z,100534.66
2022-07-30T06:10:28.061Z,100535.72
2022-07-30T06:12:56.189Z,100522.00
2022-07-30T06:15:25.977Z,100531.56
2022-07-30T06:18:01.588Z,100536.50
2022-07-30T06:20:52.485Z,100533.09
2022-07-30T06:23:27.573Z,100538.91
2022-07-30T06:26:09.666Z,100429.16
2022-07-30T06:28:39.148Z,100534.44
2022-07-30T06:31:34.323Z,100501.84
2022-07-30T06:34:02.510Z,100532.78
2022-07-30T06:36:37.741Z,100533.13
2022-07-30T06:39:10.101Z,100541.25
2022-07-30T06:41:58.379Z,100530.78
2022-07-30T06:44:43.061Z,100531.19
2022-07-30T06:47:29.094Z,100538.16
2022-07-30T06:50:02.323Z,100537.13
2022-07-30T06:52:33.558Z,100525.03
2022-07-30T06:55:01.949Z,100537.78
2022-07-30T06:57:46.767Z,100492.16
2022-07-30T07:00:34.802Z,100531.19
2022-07-30T07:03:11.616Z,100524.22
2022-07-30T07:05:40.475Z,100522.09
2022-07-30T07:08:09.992Z,100531.94
2022-07-30T07:10:44.013Z,100528.94
2022-07-30T07:13:32.151Z,100524.41
2022-07-30T07:16:02.407Z,100531.25
2022-07-30T07:18:32.325Z,100526.50
2022-07-30T07:21:06.077Z,100534.69
2022-07-30T07:23:41.921Z,100527.13
2022-07-30T07:26:25.280Z,100483.69
2022-07-30T07:28:53.338Z,100527.63
2022-07-30T07:32:04.506Z,100536.34
2022-07-30T07:34:10.792Z,100526.53
2022-07-30T07:36:41.302Z,100515.44
2022-07-30T07:39:13.111Z,100535.75
2022-07-30T07:41:48.827Z,100532.44
2022-07-30T07:44:20.912Z,100530.81
2022-07-30T07:46:49.355Z,100535.41
2022-07-30T07:49:17.642Z,100543.75
2022-07-30T07:51:51.483Z,100534.28
2022-07-30T07:54:23.263Z,100510.72
2022-07-30T07:56:55.999Z,100541.03
2022-07-30T07:59:40.202Z,100536.34
2022-07-30T08:02:16.778Z,100531.25
2022-07-30T08:04:45.288Z,100511.03
2022-07-30T08:07:13.766Z,100510.38
2022-07-30T08:09:52.198Z,100524.66
2022-07-30T08:12:27.394Z,100482.88
2022-07-30T08:15:13.790Z,100519.56
2022-07-30T08:18:00.590Z,100515.22
2022-07-30T08:20:40.811Z,100514.19
2022-07-30T08:23:09.274Z,100510.41
2022-07-30T08:25:38.636Z,100516.22
2022-07-30T08:28:06.881Z,100516.63
2022-07-30T08:33:04.166Z,100500.13
2022-07-30T08:35:32.544Z,100520.09
2022-07-30T08:38:00.547Z,100460.91
2022-07-30T08:40:33.875Z,100521.34
2022-07-30T08:43:08.049Z,100504.34
2022-07-30T08:45:38.691Z,100517.84
2022-07-30T08:48:23.162Z,100516.84
2022-07-30T08:50:51.712Z,100522.97
2022-07-30T08:53:35.457Z,100522.38
2022-07-30T08:56:05.678Z,100487.81
2022-07-30T08:58:36.016Z,100522.06
2022-07-30T09:01:04.834Z,100529.59
2022-07-30T09:03:33.208Z,100483.16
2022-07-30T09:06:03.459Z,100533.91
2022-07-30T09:08:32.866Z,100528.84
2022-07-30T09:11:01.651Z,100465.84
2022-07-30T09:13:31.815Z,100540.16
2022-07-30T09:16:03.410Z,100529.03
2022-07-30T09:18:35.358Z,100523.31
2022-07-30T09:21:16.020Z,100519.44
2022-07-30T09:23:58.538Z,100527.00
2022-07-30T09:26:55.512Z,100403.72
2022-07-30T09:29:41.787Z,100336.50
2022-07-30T09:32:49.228Z,100528.75
2022-07-30T09:35:35.674Z,100464.41
2022-07-30T09:38:13.607Z,100533.41
2022-07-30T09:40:57.742Z,100527.25
2022-07-30T09:43:48.313Z,100526.63
2022-07-30T09:46:42.631Z,100505.66
2022-07-30T09:49:18.008Z,100393.69
2022-07-30T09:51:54.672Z,100527.31
2022-07-30T09:54:27.018Z,100514.91
2022-07-30T09:59:59.751Z,100540.34
2022-07-30T10:02:33.419Z,100547.13
2022-07-30T10:05:24.514Z,100544.50
2022-07-30T10:07:54.755Z,100545.81
2022-07-30T10:10:26.201Z,100543.81
2022-07-30T10:12:59.328Z,100548.59
2022-07-30T10:15:32.395Z,100548.81
2022-07-30T10:18:01.986Z,100478.47
2022-07-30T10:20:50.315Z,100542.59
2022-07-30T10:23:32.695Z,100549.53
2022-07-30T10:26:29.174Z,100555.28
2022-07-30T10:29:18.510Z,100516.66
2022-07-30T10:31:54.194Z,100546.22
2022-07-30T10:34:23.679Z,100541.69
2022-07-30T10:36:59.033Z,100480.13
2022-07-30T10:39:34.581Z,100538.59
2022-07-30T10:42:13.679Z,100544.59
2022-07-30T10:45:17.464Z,100549.31
2022-07-30T10:47:48.876Z,100550.63
2022-07-30T10:50:22.450Z,100535.84
2022-07-30T10:52:53.790Z,100554.75
2022-07-30T10:55:37.166Z,100507.31
2022-07-30T10:58:10.008Z,100528.53
2022-07-30T11:01:02.486Z,100555.69
2022-07-30T11:03:41.027Z,100540.50
2022-07-30T11:06:29.378Z,100537.81
2022-07-30T11:08:58.121Z,100540.34
2022-07-30T11:12:05.417Z,100539.28
2022-07-30T11:15:07.255Z,100535.97
2022-07-30T11:18:12.524Z,100513.53
2022-07-30T11:20:43.272Z,100521.66
2022-07-30T11:23:40.009Z,100523.06
2022-07-30T11:26:13.949Z,100527.53
2022-07-30T11:28:45.301Z,100520.00
2022-07-30T11:31:56.993Z,100525.94
2022-07-30T11:34:30.728Z,100532.00
2022-07-30T11:37:19.226Z,100522.50
2022-07-30T11:40:13.262Z,100521.78
2022-07-30T11:42:43.204Z,100518.19
2022-07-30T11:45:27.113Z,100517.44
2022-07-30T11:48:00.320Z,100411.53
2022-07-30T11:50:32.556Z,100489.78
2022-07-30T11:53:02.544Z,100526.69
2022-07-30T11:55:32.685Z,100466.44
2022-07-30T11:58:02.348Z,100515.41
2022-07-30T12:00:36.382Z,100530.72
2022-07-30T12:03:12.569Z,100526.81
2022-07-30T12:05:43.566Z,100525.81
2022-07-30T12:08:35.405Z,100481.44
2022-07-30T12:11:02.209Z,100526.22
2022-07-30T12:13:43.622Z,100519.91
2022-07-30T12:16:16.221Z,100526.66
2022-07-30T12:18:45.158Z,100537.34
2022-07-30T12:21:16.164Z,100516.88
2022-07-30T12:23:54.561Z,100509.34
2022-07-30T12:26:24.677Z,100509.91
2022-07-30T12:28:55.960Z,100498.91
2022-07-30T12:31:24.443Z,100533.81
2022-07-30T12:33:52.945Z,100532.50
2022-07-30T12:36:31.944Z,100537.34
2022-07-30T12:39:01.451Z,100463.97
2022-07-30T12:41:44.067Z,100497.28
2022-07-30T12:44:12.330Z,100545.41
2022-07-30T12:46:41.806Z,100539.03
2022-07-30T12:49:21.214Z,100525.44
2022-07-30T12:52:04.632Z,100537.03
2022-07-30T12:54:32.690Z,100514.25
2022-07-30T12:57:03.011Z,100538.09
2022-07-30T12:59:32.711Z,100537.03
2022-07-30T13:02:01.279Z,100537.00
2022-07-30T13:04:29.880Z,100431.81
2022-07-30T13:07:07.031Z,100528.66
2022-07-30T13:09:35.695Z,100526.19
2022-07-30T13:12:04.099Z,100524.69
2022-07-30T13:14:32.411Z,100532.91
2022-07-30T13:17:01.261Z,100534.66
2022-07-30T13:19:29.536Z,100535.75
2022-07-30T13:21:57.862Z,100519.25
2022-07-30T13:24:29.011Z,100535.19
2022-07-30T13:26:57.417Z,100531.84
2022-07-30T13:29:25.677Z,100467.44
2022-07-30T13:31:53.873Z,100509.94
2022-07-30T13:34:22.147Z,100527.94
2022-07-30T13:36:50.160Z,100534.53
2022-07-30T13:39:18.272Z,100543.03
2022-07-30T13:41:47.826Z,100520.00
2022-07-30T13:44:15.905Z,100540.97
2022-07-30T13:46:43.937Z,100540.91
2022-07-30T13:49:12.054Z,100523.94
2022-07-30T13:51:40.171Z,100545.13
2022-07-30T13:54:08.692Z,100538.84
2022-07-30T13:56:41.918Z,100538.56
2022-07-30T13:59:11.824Z,100538.06
2022-07-30T14:01:40.007Z,100538.34
2022-07-30T14:04:08.615Z,100512.63
2022-07-30T14:06:36.843Z,100470.50
2022-07-30T14:09:05.016Z,100496.00
2022-07-30T14:11:33.881Z,100466.97
2022-07-30T14:14:01.806Z,100533.09
2022-07-30T14:16:46.574Z,100531.72
2022-07-30T14:19:23.886Z,100527.06
2022-07-30T14:21:53.215Z,100524.78
2022-07-30T14:24:22.110Z,100530.69
2022-07-30T14:26:53.358Z,100499.13
2022-07-30T14:29:26.195Z,100517.84
2022-07-30T14:31:55.850Z,100521.53
2022-07-30T14:34:24.631Z,100512.41
2022-07-30T14:36:52.881Z,100491.19
2022-07-30T14:39:21.407Z,100517.97
2022-07-30T14:41:53.605Z,100514.69
2022-07-30T14:44:24.394Z,100526.25
2022-07-30T14:46:53.482Z,100512.56
2022-07-30T14:49:24.031Z,100524.38
2022-07-30T14:51:52.681Z,100525.28
2022-07-30T14:54:21.001Z,100525.19
2022-07-30T14:56:49.544Z,100477.41
2022-07-30T14:59:18.197Z,100503.59
2022-07-30T15:01:48.276Z,100523.03
2022-07-30T15:04:16.321Z,100527.28
2022-07-30T15:06:45.878Z,100528.75
2022-07-30T15:09:14.327Z,100389.25
2022-07-30T15:12:07.881Z,100449.75
2022-07-30T15:14:30.744Z,100530.56
2022-07-30T15:17:03.939Z,100527.22
2022-07-30T15:19:33.127Z,100511.34
2022-07-30T15:22:04.010Z,100491.94
2022-07-30T15:24:32.551Z,100522.97
2022-07-30T15:27:01.571Z,100527.47
2022-07-30T15:29:30.262Z,100523.19
2022-07-30T15:32:00.547Z,100529.13
2022-07-30T15:34:33.948Z,100523.25
2022-07-30T15:37:05.380Z,100447.19
2022-07-30T15:39:34.166Z,100521.16
2022-07-30T15:42:02.566Z,100520.38
2022-07-30T15:44:31.277Z,100475.34
2022-07-30T15:46:59.314Z,100522.13
2022-07-30T15:49:27.930Z,100441.94
2022-07-30T15:51:56.170Z,100504.47
2022-07-30T15:54:27.035Z,100470.34
2022-07-30T15:57:01.068Z,100506.44
2022-07-30T15:59:30.408Z,100493.75
2022-07-30T16:01:59.280Z,100508.22
2022-07-30T16:04:31.592Z,100500.03
2022-07-30T16:07:00.734Z,100513.50
2022-07-30T16:09:30.431Z,100510.66
2022-07-30T16:11:59.080Z,100508.47
2022-07-30T16:14:27.657Z,100506.22
2022-07-30T16:16:55.934Z,100506.50
2022-07-30T16:19:24.027Z,100508.22
2022-07-30T16:21:52.076Z,100484.31
2022-07-30T16:24:20.182Z,100506.75
2022-07-30T16:26:50.630Z,100470.16
2022-07-30T16:29:18.980Z,100510.22
2022-07-30T16:31:47.652Z,100496.06
2022-07-30T16:34:15.770Z,100439.13
2022-07-30T16:36:44.064Z,100514.13
2022-07-30T16:39:12.206Z,100505.56
2022-07-30T16:41:41.169Z,100476.22
2022-07-30T16:44:10.888Z,100479.69
2022-07-30T16:46:39.095Z,100514.91
2022-07-30T16:49:07.602Z,100521.34
2022-07-30T16:51:35.741Z,100520.16
2022-07-30T16:54:03.801Z,100373.44
2022-07-30T16:56:31.834Z,100529.56
2022-07-30T16:58:59.950Z,100522.34
2022-07-30T17:01:31.143Z,100427.38
2022-07-30T17:03:59.385Z,100517.50
2022-07-30T17:06:27.590Z,100492.28
2022-07-30T17:08:55.571Z,100512.25
2022-07-30T17:11:47.574Z,100521.16
2022-07-30T17:14:12.502Z,100521.03
2022-07-30T17:16:42.482Z,100519.28
2022-07-30T17:19:10.434Z,100519.06
2022-07-30T17:21:39.117Z,100506.44
2022-07-30T17:24:11.462Z,100518.41
2022-07-30T17:26:43.118Z,100523.34
2022-07-30T17:29:14.109Z,100514.75
2022-07-30T17:31:44.866Z,100435.56
2022-07-30T17:34:14.335Z,100512.94
2022-07-30T17:36:51.407Z,100518.75
2022-07-30T17:40:04.383Z,100522.50
2022-07-30T17:42:10.118Z,100527.84
2022-07-30T17:44:39.362Z,100499.81
2022-07-30T17:47:14.392Z,100516.41
2022-07-30T17:49:43.020Z,100383.97
2022-07-30T17:52:11.196Z,100525.03
2022-07-30T17:54:39.192Z,100525.56
2022-07-30T17:57:07.534Z,100518.06
2022-07-30T17:59:35.661Z,100536.47
2022-07-30T18:02:04.719Z,100533.84
2022-07-30T18:04:34.984Z,100529.19
2022-07-30T18:07:02.875Z,100532.66
2022-07-30T18:09:40.114Z,100460.44
2022-07-30T18:12:09.178Z,100507.97
2022-07-30T18:14:37.451Z,100530.72
2022-07-30T18:17:06.869Z,100531.97
2022-07-30T18:19:38.667Z,100536.84
2022-07-30T18:22:08.863Z,100391.41
2022-07-30T18:24:40.491Z,100529.31
2022-07-30T18:27:12.025Z,100518.22
2022-07-30T18:29:40.007Z,100517.28
2022-07-30T18:32:08.530Z,100471.31
2022-07-30T18:34:38.145Z,100539.84
2022-07-30T18:37:06.278Z,100541.06
2022-07-30T18:39:34.226Z,100545.31
2022-07-30T18:42:03.658Z,100557.97
2022-07-30T18:44:32.510Z,100553.38
2022-07-30T18:47:00.975Z,100502.88
2022-07-30T18:49:37.827Z,100527.75
2022-07-30T18:52:08.401Z,100518.38
2022-07-30T18:54:37.746Z,100560.13
2022-07-30T18:57:08.197Z,100553.19
2022-07-30T18:59:39.330Z,100549.22
2022-07-30T19:02:08.616Z,100562.00
2022-07-30T19:04:36.632Z,100560.50
2022-07-30T19:07:04.816Z,100452.44
2022-07-30T19:09:34.576Z,100555.91
2022-07-30T19:12:02.891Z,100487.25
2022-07-30T19:14:31.130Z,100566.31
2022-07-30T19:16:59.467Z,100536.31
2022-07-30T19:19:28.486Z,100571.50
2022-07-30T19:21:57.250Z,100504.94
2022-07-30T19:24:27.068Z,100573.22
2022-07-30T19:26:57.933Z,100494.91
2022-07-30T19:29:26.334Z,100567.03
2022-07-30T19:31:54.572Z,100576.06
2022-07-30T19:34:22.863Z,100584.59
2022-07-30T19:36:50.998Z,100583.00
2022-07-30T19:39:21.860Z,100531.03
2022-07-30T19:41:51.042Z,100570.84
2022-07-30T19:44:20.569Z,100591.88
2022-07-30T19:46:51.752Z,100590.66
2022-07-30T19:49:21.614Z,100576.72
2022-07-30T19:52:17.702Z,100594.69
2022-07-30T19:54:38.239Z,100605.44
2022-07-30T19:57:06.300Z,100606.13
2022-07-30T19:59:45.616Z,100579.00
2022-07-30T20:02:24.119Z,100610.19
2022-07-30T20:04:54.852Z,100546.81
2022-07-30T20:07:27.534Z,100541.44
2022-07-30T20:09:55.772Z,100520.31
2022-07-30T20:12:24.235Z,100604.63
2022-07-30T20:14:53.776Z,100624.28
2022-07-30T20:17:23.992Z,100630.41
2022-07-30T20:19:58.120Z,100620.91
2022-07-30T20:22:27.827Z,100600.97
2022-07-30T20:24:55.793Z,100635.31
2022-07-30T20:27:36.582Z,100635.78
2022-07-30T20:30:09.970Z,100633.59
2022-07-30T20:32:42.299Z,100620.34
2022-07-30T20:35:14.504Z,100611.63
2022-07-30T20:37:54.951Z,100641.00
2022-07-30T20:40:24.292Z,100649.69
2022-07-30T20:42:55.246Z,100639.91
2022-07-30T20:45:25.311Z,100591.00
2022-07-30T20:48:08.407Z,100641.66
2022-07-30T20:50:46.122Z,100647.41
2022-07-30T20:53:17.310Z,100638.63
2022-07-30T20:55:45.276Z,100636.97
2022-07-30T20:58:16.494Z,100638.94
2022-07-30T21:00:49.649Z,100572.16
2022-07-30T21:03:21.214Z,100613.91
2022-07-30T21:05:51.186Z,100652.94
2022-07-30T21:08:25.280Z,100614.03
2022-07-30T21:10:55.545Z,100642.75
2022-07-30T21:16:16.117Z,100645.31
2022-07-30T21:18:49.981Z,100652.91
2022-07-30T21:21:28.670Z,100601.38
2022-07-30T21:24:11.890Z,100640.53
2022-07-30T21:26:40.883Z,100644.09
2022-07-30T21:29:09.203Z,100649.66
2022-07-30T21:31:58.486Z,100650.13
2022-07-30T21:34:30.918Z,100642.38
2022-07-30T21:37:03.512Z,100625.97
2022-07-30T21:39:31.675Z,100646.72
2022-07-30T21:42:08.487Z,100646.06
2022-07-30T21:44:37.521Z,100651.06
2022-07-30T21:47:10.398Z,100637.44
2022-07-30T21:49:39.859Z,100648.56
2022-07-30T21:52:09.025Z,100650.97
2022-07-30T21:54:48.432Z,100619.25
2022-07-30T21:57:23.139Z,100655.38
2022-07-30T21:59:55.347Z,100655.47
2022-07-30T22:02:25.946Z,100658.72
2022-07-30T22:04:56.587Z,100613.97
2022-07-30T22:07:27.276Z,100655.31
2022-07-30T22:09:55.222Z,100657.81
2022-07-30T22:12:28.914Z,100581.66
2022-07-30T22:14:57.103Z,100583.75
2022-07-30T22:17:36.936Z,100661.97
2022-07-30T22:20:15.163Z,100624.06
2022-07-30T22:22:43.506Z,100657.31
2022-07-30T22:25:12.183Z,100667.69
2022-07-30T22:27:56.853Z,100665.22
2022-07-30T22:30:27.105Z,100655.91
2022-07-30T22:32:56.950Z,100582.88
2022-07-30T22:35:33.794Z,100669.28
2022-07-30T22:38:03.282Z,100671.91
2022-07-30T22:40:31.379Z,100662.78
2022-07-30T22:42:59.689Z,100668.50
2022-07-30T22:45:47.140Z,100664.94
2022-07-30T22:48:19.436Z,100662.13
2022-07-30T22:50:51.858Z,100664.97
2022-07-30T22:54:03.424Z,100666.09
2022-07-30T22:56:14.178Z,100616.47
2022-07-30T22:58:44.437Z,100628.59
2022-07-30T23:01:12.582Z,100629.38
2022-07-30T23:03:43.773Z,100575.44
2022-07-30T23:06:14.733Z,100629.59
2022-07-30T23:08:44.473Z,100637.69
2022-07-30T23:11:12.803Z,100643.78
2022-07-30T23:12:26.913Z,100647.41
2022-07-30T23:13:42.502Z,100633.34
2022-07-30T23:16:10.763Z,100607.63
2022-07-30T23:18:39.068Z,100631.81
2022-07-30T23:21:08.618Z,100623.25
2022-07-30T23:23:36.777Z,100599.84
2022-07-30T23:26:06.005Z,100623.63
2022-07-30T23:28:34.454Z,100523.06
2022-07-30T23:31:03.525Z,100632.84
2022-07-30T23:33:32.494Z,100597.31
2022-07-30T23:36:01.553Z,100584.00
2022-07-30T23:38:30.912Z,100625.56
2022-07-30T23:41:01.527Z,100625.34
2022-07-30T23:43:31.231Z,100629.19
2022-07-30T23:46:00.860Z,100586.16
2022-07-30T23:48:29.481Z,100613.53
2022-07-30T23:50:57.636Z,100613.41
2022-07-30T23:53:26.019Z,100612.47
2022-07-30T23:55:55.522Z,100618.63
2022-07-30T23:58:23.492Z,100629.59
